createdAt,value
2018-12-23T20:36:34.303Z,98305.08
2018-12-23T20:39:19.622Z,98313.64
2018-12-23T20:42:15.930Z,98320.25
2018-12-23T20:45:02.262Z,98320.72
2018-12-23T20:47:52.679Z,98309.73
2018-12-23T20:50:46.191Z,98311.88
2018-12-23T20:53:36.314Z,98306.10
2018-12-23T20:56:18.025Z,98307.20
2018-12-23T20:59:06.550Z,98307.90
2018-12-23T21:02:09.439Z,98292.79
2018-12-23T21:04:40.102Z,98293.65
2018-12-23T21:07:45.622Z,98294.62
2018-12-23T21:10:42.074Z,98293.80
2018-12-23T21:13:35.458Z,98294.38
2018-12-23T21:16:18.355Z,98297.85
2018-12-23T21:19:11.551Z,98291.55
2018-12-23T21:22:01.854Z,98286.98
2018-12-23T21:24:50.166Z,98283.72
2018-12-23T21:27:43.944Z,98276.44
2018-12-23T21:30:49.510Z,98275.69
2018-12-23T21:33:37.294Z,98268.33
2018-12-23T21:36:34.217Z,98269.34
2018-12-23T21:39:16.155Z,98268.22
2018-12-23T21:42:18.550Z,98273.27
2018-12-23T21:45:14.454Z,98269.92
2018-12-23T21:47:51.649Z,98276.38
2018-12-23T21:50:25.997Z,98274.12
2018-12-23T21:53:13.614Z,98271.55
2018-12-23T21:56:02.319Z,98258.88
2018-12-23T21:58:50.025Z,98253.51
2018-12-23T22:01:40.360Z,98257.09
2018-12-23T22:04:36.714Z,98265.61
2018-12-23T22:07:33.295Z,98261.51
2018-12-23T22:10:38.690Z,98263.31
2018-12-23T22:13:24.757Z,98257.27
2018-12-23T22:15:54.492Z,98263.59
2018-12-23T22:18:22.977Z,98257.21
2018-12-23T22:20:51.171Z,98246.62
2018-12-23T22:23:19.934Z,98251.67
2018-12-23T22:25:48.534Z,98241.69
2018-12-23T22:28:17.118Z,98232.97
2018-12-23T22:30:45.416Z,98243.84
2018-12-23T22:33:13.722Z,98232.44
2018-12-23T22:35:42.683Z,98228.16
2018-12-23T22:38:11.439Z,98226.62
2018-12-23T22:40:41.475Z,98221.05
2018-12-23T22:43:09.683Z,98215.38
2018-12-23T22:45:37.879Z,98211.09
2018-12-23T22:48:06.087Z,98216.45
2018-12-23T22:50:34.914Z,98210.47
2018-12-23T22:53:04.021Z,98216.55
2018-12-23T22:55:32.861Z,98218.92
2018-12-23T22:58:01.663Z,98217.41
2018-12-23T23:00:33.318Z,98209.83
2018-12-23T23:03:08.987Z,98204.98
2018-12-23T23:05:42.743Z,98213.20
2018-12-23T23:08:12.543Z,98202.82
2018-12-23T23:10:42.583Z,98197.02
2018-12-23T23:13:18.558Z,98201.24
2018-12-23T23:15:41.606Z,98207.91
2018-12-23T23:18:09.823Z,98205.14
2018-12-23T23:20:38.883Z,98188.34
2018-12-23T23:23:07.369Z,98184.81
2018-12-23T23:25:37.473Z,98174.76
2018-12-23T23:28:06.036Z,98177.45
2018-12-23T23:30:34.931Z,98167.80
2018-12-23T23:33:03.408Z,98164.00
2018-12-23T23:35:31.858Z,98164.43
2018-12-23T23:38:02.344Z,98167.20
2018-12-23T23:40:43.941Z,98164.09
2018-12-23T23:43:13.339Z,98166.66
2018-12-23T23:45:41.918Z,98156.18
2018-12-23T23:48:12.128Z,98151.78
2018-12-23T23:50:40.822Z,98132.94
2018-12-23T23:53:09.649Z,98135.19
2018-12-23T23:55:38.966Z,98140.48
2018-12-23T23:58:08.208Z,98131.85
